createdAt,value
2023-04-18T00:01:45.804Z,100.00
2023-04-18T00:04:14.159Z,100.00
2023-04-18T00:06:41.242Z,100.00
2023-04-18T00:09:08.102Z,100.00
2023-04-18T00:11:35.225Z,100.00
2023-04-18T00:14:03.468Z,100.00
2023-04-18T00:16:30.667Z,100.00
2023-04-18T00:18:57.616Z,100.00
2023-04-18T00:21:25.790Z,100.00
2023-04-18T00:23:52.793Z,100.00
2023-04-18T00:26:19.704Z,100.00
2023-04-18T00:28:46.490Z,100.00
2023-04-18T00:31:13.390Z,100.00
2023-04-18T00:33:40.487Z,100.00
2023-04-18T00:36:07.476Z,100.00
2023-04-18T00:38:34.269Z,100.00
2023-04-18T00:41:01.073Z,100.00
2023-04-18T00:43:28.261Z,100.00
2023-04-18T00:45:57.227Z,100.00
2023-04-18T00:48:24.097Z,100.00
2023-04-18T00:50:50.901Z,100.00
2023-04-18T00:53:17.673Z,100.00
2023-04-18T00:55:44.460Z,100.00
2023-04-18T00:58:11.596Z,100.00
2023-04-18T01:00:38.401Z,100.00
2023-04-18T01:03:06.858Z,100.00
2023-04-18T01:05:35.206Z,100.00
2023-04-18T01:08:02.551Z,100.00
2023-04-18T01:10:29.980Z,100.00
2023-04-18T01:13:16.095Z,100.00
2023-04-18T01:15:43.859Z,100.00
2023-04-18T01:18:11.801Z,100.00
2023-04-18T01:20:41.496Z,100.00
2023-04-18T01:23:10.457Z,100.00
2023-04-18T01:25:37.515Z,100.00
2023-04-18T01:28:05.086Z,100.00
2023-04-18T01:30:33.028Z,100.00
2023-04-18T01:33:04.074Z,100.00
2023-04-18T01:35:31.483Z,100.00
2023-04-18T01:37:58.466Z,100.00
2023-04-18T01:40:25.407Z,100.00
2023-04-18T01:42:52.276Z,100.00
2023-04-18T01:45:19.740Z,100.00
2023-04-18T01:47:47.015Z,100.00
2023-04-18T01:50:13.990Z,100.00
2023-04-18T01:52:41.396Z,100.00
2023-04-18T01:55:08.636Z,100.00
2023-04-18T01:57:36.891Z,100.00
2023-04-18T02:00:06.773Z,100.00
2023-04-18T02:02:34.181Z,100.00
2023-04-18T02:05:01.293Z,100.00
2023-04-18T02:07:28.101Z,100.00
2023-04-18T02:09:55.179Z,100.00
2023-04-18T02:12:22.019Z,100.00
2023-04-18T02:14:51.832Z,100.00
2023-04-18T02:17:19.567Z,100.00
2023-04-18T02:19:46.716Z,100.00
2023-04-18T02:22:13.523Z,100.00
2023-04-18T02:24:40.332Z,100.00
2023-04-18T02:27:07.110Z,100.00
2023-04-18T02:29:34.047Z,100.00
2023-04-18T02:32:01.087Z,100.00
2023-04-18T02:34:27.894Z,100.00
2023-04-18T02:36:54.690Z,100.00
2023-04-18T02:39:21.600Z,100.00
2023-04-18T02:41:48.476Z,100.00
2023-04-18T02:44:15.487Z,100.00
2023-04-18T02:46:42.373Z,100.00
2023-04-18T02:49:09.171Z,100.00
2023-04-18T02:51:36.017Z,100.00
2023-04-18T02:54:02.915Z,100.00
2023-04-18T02:56:29.746Z,100.00
2023-04-18T02:58:56.667Z,100.00
2023-04-18T03:01:23.485Z,100.00
2023-04-18T03:03:50.450Z,100.00
2023-04-18T03:06:17.232Z,100.00
2023-04-18T03:08:44.056Z,100.00
2023-04-18T03:11:10.865Z,100.00
2023-04-18T03:13:37.660Z,100.00
2023-04-18T03:16:04.925Z,100.00
2023-04-18T03:18:31.751Z,100.00
2023-04-18T03:20:58.602Z,100.00
2023-04-18T03:23:25.377Z,100.00
2023-04-18T03:25:52.109Z,100.00
2023-04-18T03:28:18.897Z,100.00
2023-04-18T03:30:45.731Z,100.00
2023-04-18T03:33:14.498Z,100.00
2023-04-18T03:35:41.360Z,100.00
2023-04-18T03:38:08.098Z,100.00
2023-04-18T03:40:34.891Z,100.00
2023-04-18T03:43:01.733Z,100.00
2023-04-18T03:45:28.643Z,100.00
2023-04-18T03:47:55.500Z,100.00
2023-04-18T03:50:22.294Z,100.00
2023-04-18T03:52:49.085Z,100.00
2023-04-18T03:55:15.983Z,100.00
2023-04-18T03:57:42.753Z,100.00
2023-04-18T04:00:10.484Z,100.00
2023-04-18T04:02:37.387Z,100.00
2023-04-18T04:05:05.193Z,100.00
2023-04-18T04:07:32.260Z,100.00
2023-04-18T04:09:59.036Z,100.00
2023-04-18T04:12:25.885Z,100.00
2023-04-18T04:14:52.729Z,100.00
2023-04-18T04:17:19.576Z,100.00
2023-04-18T04:19:46.417Z,100.00
2023-04-18T04:22:13.576Z,100.00
2023-04-18T04:24:40.537Z,100.00
2023-04-18T04:27:08.186Z,100.00
2023-04-18T04:29:36.187Z,100.00
2023-04-18T04:32:05.748Z,100.00
2023-04-18T04:34:34.507Z,100.00
2023-04-18T04:37:01.588Z,100.00
2023-04-18T04:39:28.390Z,100.00
2023-04-18T04:41:55.523Z,100.00
2023-04-18T04:44:26.077Z,100.00
2023-04-18T04:46:54.604Z,100.00
2023-04-18T04:49:22.087Z,100.00
2023-04-18T04:51:49.082Z,100.00
2023-04-18T04:54:16.301Z,100.00
2023-04-18T04:56:43.316Z,100.00
2023-04-18T04:59:10.104Z,100.00
2023-04-18T05:01:45.286Z,100.00
2023-04-18T05:04:12.880Z,100.00
2023-04-18T05:06:40.354Z,99.07
2023-04-18T05:09:07.292Z,97.83
2023-04-18T05:11:34.054Z,97.08
2023-04-18T05:14:00.839Z,96.47
2023-04-18T05:16:27.645Z,95.67
2023-04-18T05:18:54.511Z,94.95
2023-04-18T05:21:21.270Z,93.50
2023-04-18T05:23:48.047Z,93.01
2023-04-18T05:26:14.938Z,92.31
2023-04-18T05:28:41.813Z,91.79
2023-04-18T05:31:08.674Z,90.52
2023-04-18T05:33:35.689Z,89.59
2023-04-18T05:36:02.710Z,89.86
2023-04-18T05:38:29.568Z,88.06
2023-04-18T05:40:57.179Z,87.32
2023-04-18T05:43:24.012Z,86.48
2023-04-18T05:45:52.749Z,85.45
2023-04-18T05:48:19.771Z,83.96
2023-04-18T05:50:46.535Z,84.32
2023-04-18T05:53:13.302Z,83.72
2023-04-18T05:55:41.118Z,82.46
2023-04-18T05:58:08.036Z,82.77
2023-04-18T06:00:35.084Z,81.79
2023-04-18T06:03:02.158Z,81.67
2023-04-18T06:05:29.522Z,80.47
2023-04-18T06:07:56.481Z,81.15
2023-04-18T06:10:23.276Z,80.23
2023-04-18T06:12:50.098Z,80.16
2023-04-18T06:15:16.941Z,80.05
2023-04-18T06:17:44.739Z,79.81
2023-04-18T06:20:11.786Z,78.98
2023-04-18T06:22:38.586Z,77.87
2023-04-18T06:25:05.887Z,77.94
2023-04-18T06:27:32.736Z,77.54
2023-04-18T06:29:59.500Z,76.34
2023-04-18T06:32:26.609Z,75.44
2023-04-18T06:34:53.613Z,75.93
2023-04-18T06:37:20.564Z,75.31
2023-04-18T06:39:47.407Z,75.89
2023-04-18T06:42:14.193Z,77.15
2023-04-18T06:44:43.082Z,77.76
2023-04-18T06:47:10.049Z,77.50
2023-04-18T06:49:37.240Z,76.65
2023-04-18T06:52:04.072Z,77.53
2023-04-18T06:54:30.903Z,78.07
2023-04-18T06:56:57.695Z,78.10
2023-04-18T06:59:24.497Z,77.38
2023-04-18T07:01:51.494Z,73.66
2023-04-18T07:04:18.834Z,73.86
2023-04-18T07:06:45.879Z,73.61
2023-04-18T07:09:12.783Z,71.80
2023-04-18T07:11:40.918Z,71.24
2023-04-18T07:14:07.836Z,70.35
2023-04-18T07:16:34.837Z,67.24
2023-04-18T07:19:01.662Z,66.00
2023-04-18T07:21:28.494Z,66.06
2023-04-18T07:23:55.440Z,66.01
2023-04-18T07:26:22.351Z,65.93
2023-04-18T07:28:49.303Z,65.50
2023-04-18T07:31:16.661Z,63.63
2023-04-18T07:33:43.789Z,62.94
2023-04-18T07:36:10.959Z,63.09
2023-04-18T07:38:37.844Z,61.21
2023-04-18T07:41:04.694Z,61.46
2023-04-18T07:43:31.668Z,60.62
2023-04-18T07:45:58.682Z,61.32
2023-04-18T07:48:26.025Z,60.49
2023-04-18T07:50:53.497Z,62.61
2023-04-18T07:53:20.315Z,61.35
2023-04-18T07:55:47.134Z,61.84
2023-04-18T07:58:14.102Z,60.98
2023-04-18T08:00:42.708Z,60.74
2023-04-18T08:03:13.015Z,61.78
2023-04-18T08:05:40.991Z,62.85
2023-04-18T08:08:08.792Z,60.01
2023-04-18T08:10:35.930Z,57.68
2023-04-18T08:13:03.031Z,57.27
2023-04-18T08:15:32.302Z,54.06
2023-04-18T08:17:59.736Z,54.04
2023-04-18T08:20:26.688Z,55.25
2023-04-18T08:23:05.647Z,56.25
2023-04-18T08:25:33.633Z,57.28
2023-04-18T08:28:00.521Z,58.19
2023-04-18T08:30:27.499Z,57.98
2023-04-18T08:32:54.372Z,59.66
2023-04-18T08:35:21.393Z,57.25
2023-04-18T08:37:48.284Z,57.82
2023-04-18T08:40:15.058Z,54.72
2023-04-18T08:42:43.410Z,54.87
2023-04-18T08:45:12.418Z,53.39
2023-04-18T08:47:39.218Z,52.10
2023-04-18T08:50:06.869Z,52.16
2023-04-18T08:52:34.428Z,53.11
2023-04-18T08:55:02.789Z,53.94
2023-04-18T08:57:31.137Z,53.85
2023-04-18T09:00:00.801Z,51.22
2023-04-18T09:02:43.919Z,51.77
2023-04-18T09:05:11.856Z,49.69
2023-04-18T09:07:38.647Z,52.17
2023-04-18T09:10:05.790Z,52.31
2023-04-18T09:12:34.619Z,54.08
2023-04-18T09:15:11.318Z,52.51
2023-04-18T09:17:41.810Z,48.32
2023-04-18T09:20:12.337Z,47.64
2023-04-18T09:22:48.611Z,46.81
2023-04-18T09:25:53.376Z,43.55
2023-04-18T09:28:23.847Z,46.38
2023-04-18T09:30:54.432Z,45.68
2023-04-18T09:33:28.687Z,46.42
2023-04-18T09:35:56.769Z,45.87
2023-04-18T09:38:39.617Z,46.20
2023-04-18T09:41:10.356Z,44.97
2023-04-18T09:43:37.249Z,43.47
2023-04-18T09:46:04.338Z,43.64
2023-04-18T09:48:31.389Z,42.36
2023-04-18T09:51:09.593Z,41.77
2023-04-18T09:53:40.071Z,44.09
2023-04-18T09:56:08.556Z,44.88
2023-04-18T09:58:35.809Z,44.06
2023-04-18T10:01:02.606Z,45.31
2023-04-18T10:03:34.825Z,48.29
2023-04-18T10:06:01.861Z,46.88
2023-04-18T10:08:28.748Z,47.75
2023-04-18T10:10:57.948Z,44.32
2023-04-18T10:13:26.329Z,40.27
2023-04-18T10:15:53.497Z,38.42
2023-04-18T10:18:23.207Z,38.25
2023-04-18T10:20:50.536Z,40.39
2023-04-18T10:23:36.572Z,36.49
2023-04-18T10:26:04.515Z,37.04
2023-04-18T10:28:53.789Z,40.26
2023-04-18T10:31:28.182Z,40.28
2023-04-18T10:34:04.772Z,41.33
2023-04-18T10:36:33.107Z,38.21
2023-04-18T10:39:21.532Z,37.87
2023-04-18T10:41:50.608Z,37.98
2023-04-18T10:44:19.466Z,37.66
2023-04-18T10:46:52.217Z,38.03
2023-04-18T10:49:25.214Z,38.95
2023-04-18T10:52:00.098Z,39.57
2023-04-18T10:54:37.836Z,37.80
2023-04-18T10:57:05.515Z,38.84
2023-04-18T10:59:33.126Z,40.57
2023-04-18T11:02:20.809Z,40.50
2023-04-18T11:04:51.866Z,40.47
2023-04-18T11:07:18.710Z,38.59
2023-04-18T11:09:55.371Z,39.66
2023-04-18T11:12:22.739Z,39.25
2023-04-18T11:14:55.376Z,36.90
2023-04-18T11:17:23.972Z,38.55
2023-04-18T11:19:51.798Z,38.08
2023-04-18T11:22:20.080Z,37.82
2023-04-18T11:24:46.912Z,36.47
2023-04-18T11:27:14.059Z,39.64
2023-04-18T11:29:40.964Z,36.35
2023-04-18T11:32:08.686Z,37.77
2023-04-18T11:34:36.041Z,38.19
2023-04-18T11:37:06.472Z,38.76
2023-04-18T11:39:42.465Z,36.89
2023-04-18T11:42:09.642Z,40.23
2023-04-18T11:44:40.732Z,40.52
2023-04-18T11:47:22.833Z,36.51
2023-04-18T11:49:58.393Z,37.32
2023-04-18T11:52:26.997Z,38.05
2023-04-18T11:54:53.854Z,38.14
2023-04-18T11:57:27.830Z,36.98
2023-04-18T11:59:59.346Z,37.05
2023-04-18T12:02:27.574Z,37.78
2023-04-18T12:04:56.420Z,38.25
2023-04-18T12:07:42.803Z,39.54
2023-04-18T12:10:30.946Z,40.75
2023-04-18T12:13:01.235Z,39.28
2023-04-18T12:15:28.884Z,40.76
2023-04-18T12:18:03.232Z,40.13
2023-04-18T12:20:46.013Z,36.74
2023-04-18T12:23:31.346Z,38.26
2023-04-18T12:26:14.807Z,38.21
2023-04-18T12:28:44.463Z,38.40
2023-04-18T12:31:11.516Z,37.17
2023-04-18T12:33:38.358Z,39.60
2023-04-18T12:36:06.203Z,36.67
2023-04-18T12:38:33.009Z,36.72
2023-04-18T12:40:59.809Z,38.03
2023-04-18T12:43:28.212Z,37.37
2023-04-18T12:45:55.395Z,36.25
2023-04-18T12:48:22.645Z,33.98
2023-04-18T12:50:49.508Z,32.96
2023-04-18T12:53:16.287Z,31.11
2023-04-18T12:55:43.137Z,31.80
2023-04-18T12:58:09.944Z,32.56
2023-04-18T13:00:37.453Z,31.74
2023-04-18T13:03:04.771Z,32.84
2023-04-18T13:05:34.095Z,33.05
2023-04-18T13:10:31.617Z,34.29
2023-04-18T13:12:58.430Z,33.70
2023-04-18T13:15:26.192Z,34.83
2023-04-18T13:17:53.248Z,36.92
2023-04-18T13:20:20.163Z,38.96
2023-04-18T13:22:47.086Z,40.35
2023-04-18T13:25:13.845Z,39.51
2023-04-18T13:27:41.895Z,42.83
2023-04-18T13:30:10.849Z,41.40
2023-04-18T13:32:39.312Z,42.64
2023-04-18T13:35:08.445Z,44.36
2023-04-18T13:37:35.722Z,45.47
2023-04-18T13:40:05.487Z,45.86
2023-04-18T13:45:20.846Z,48.13
2023-04-18T13:47:47.662Z,49.74
2023-04-18T13:50:14.581Z,50.47
2023-04-18T13:52:41.529Z,51.21
2023-04-18T13:55:10.594Z,52.13
2023-04-18T13:57:37.460Z,52.41
2023-04-18T14:00:06.650Z,53.53
2023-04-18T14:02:33.658Z,54.03
2023-04-18T14:05:01.342Z,55.15
2023-04-18T14:07:28.216Z,54.28
2023-04-18T14:09:55.029Z,54.06
2023-04-18T14:12:49.372Z,54.91
2023-04-18T14:18:44.434Z,57.14
2023-04-18T14:21:11.217Z,56.56
2023-04-18T14:23:38.016Z,57.78
2023-04-18T14:26:05.609Z,59.34
2023-04-18T14:28:32.394Z,59.70
2023-04-18T14:31:02.126Z,59.15
2023-04-18T14:33:29.422Z,59.28
2023-04-18T14:35:56.481Z,60.35
2023-04-18T14:38:23.282Z,59.91
2023-04-18T14:40:50.120Z,60.62
2023-04-18T14:43:17.019Z,60.42
2023-04-18T14:45:43.825Z,61.81
2023-04-18T14:48:10.662Z,60.35
2023-04-18T14:50:38.722Z,60.41
2023-04-18T14:53:06.221Z,60.94
2023-04-18T14:55:33.988Z,60.13
2023-04-18T14:58:01.314Z,61.01
2023-04-18T15:00:28.999Z,63.01
2023-04-18T15:02:56.163Z,61.83
2023-04-18T15:05:26.634Z,63.62
2023-04-18T15:07:53.573Z,63.22
2023-04-18T15:10:22.485Z,64.37
2023-04-18T15:12:51.206Z,64.66
2023-04-18T15:15:19.522Z,64.58
2023-04-18T15:17:46.484Z,64.27
2023-04-18T15:20:13.377Z,65.68
2023-04-18T15:22:40.208Z,66.44
2023-04-18T15:25:07.797Z,65.96
2023-04-18T15:27:34.716Z,65.87
2023-04-18T15:30:02.434Z,65.18
2023-04-18T15:32:29.341Z,65.60
2023-04-18T15:34:56.346Z,65.88
2023-04-18T15:37:23.722Z,65.84
2023-04-18T15:39:50.649Z,66.67
2023-04-18T15:42:17.519Z,67.87
2023-04-18T15:44:44.438Z,68.12
2023-04-18T15:47:11.402Z,68.23
2023-04-18T15:49:38.402Z,69.05
2023-04-18T15:52:06.945Z,69.22
2023-04-18T15:54:33.937Z,69.20
2023-04-18T15:57:00.802Z,70.40
2023-04-18T15:59:27.939Z,71.76
2023-04-18T16:01:54.880Z,70.77
2023-04-18T16:04:21.964Z,73.24
2023-04-18T16:06:48.756Z,72.36
2023-04-18T16:09:16.376Z,72.72
2023-04-18T16:11:43.140Z,73.18
2023-04-18T16:14:09.942Z,72.92
2023-04-18T16:16:36.800Z,74.76
2023-04-18T16:19:04.585Z,75.34
2023-04-18T16:21:32.590Z,75.47
2023-04-18T16:23:59.936Z,75.59
2023-04-18T16:26:26.773Z,75.10
2023-04-18T16:28:53.617Z,75.15
2023-04-18T16:31:20.554Z,75.10
2023-04-18T16:33:47.467Z,75.70
2023-04-18T16:36:14.517Z,74.77
2023-04-18T16:38:41.515Z,76.38
2023-04-18T16:41:08.333Z,77.52
2023-04-18T16:43:38.211Z,78.17
2023-04-18T16:46:05.323Z,78.67
2023-04-18T16:48:32.227Z,79.57
2023-04-18T16:50:59.122Z,80.24
2023-04-18T16:53:26.020Z,80.70
2023-04-18T16:55:55.987Z,81.60
2023-04-18T16:58:23.731Z,80.54
2023-04-18T17:00:50.584Z,80.16
2023-04-18T17:03:17.540Z,80.58
2023-04-18T17:05:44.728Z,81.37
2023-04-18T17:08:11.655Z,81.24
2023-04-18T17:10:38.481Z,81.22
2023-04-18T17:13:05.296Z,81.63
2023-04-18T17:15:32.158Z,82.42
2023-04-18T17:18:01.186Z,81.39
2023-04-18T17:20:28.518Z,83.48
2023-04-18T17:22:55.644Z,83.53
2023-04-18T17:25:22.531Z,84.50
2023-04-18T17:27:49.396Z,82.83
2023-04-18T17:30:16.295Z,83.78
2023-04-18T17:32:46.141Z,84.16
2023-04-18T17:35:14.755Z,84.49
2023-04-18T17:37:42.543Z,84.51
2023-04-18T17:40:10.248Z,85.82
2023-04-18T17:42:37.139Z,86.54
2023-04-18T17:45:05.382Z,87.17
2023-04-18T17:47:33.594Z,86.75
2023-04-18T17:50:00.923Z,87.20
2023-04-18T17:52:30.737Z,88.64
2023-04-18T17:54:58.658Z,89.82
2023-04-18T17:57:26.733Z,88.48
2023-04-18T17:59:53.636Z,89.19
2023-04-18T18:02:20.541Z,89.34
2023-04-18T18:04:47.698Z,89.94
2023-04-18T18:07:14.619Z,88.96
2023-04-18T18:09:45.612Z,90.19
2023-04-18T18:12:12.499Z,89.54
2023-04-18T18:14:40.612Z,90.10
2023-04-18T18:17:07.572Z,89.77
2023-04-18T18:19:37.561Z,88.78
2023-04-18T18:22:04.359Z,89.74
2023-04-18T18:24:31.283Z,91.74
2023-04-18T18:26:59.035Z,89.08
2023-04-18T18:29:26.165Z,90.28
2023-04-18T18:31:53.026Z,91.37
2023-04-18T18:34:21.261Z,89.37
2023-04-18T18:36:48.086Z,90.03
2023-04-18T18:39:16.551Z,89.70
2023-04-18T18:41:43.506Z,89.86
2023-04-18T18:44:10.494Z,89.64
2023-04-18T18:46:37.423Z,90.69
2023-04-18T18:49:04.221Z,91.03
2023-04-18T18:51:31.069Z,92.02
2023-04-18T18:53:58.046Z,90.10
2023-04-18T18:56:24.838Z,91.76
2023-04-18T18:58:53.817Z,92.33
2023-04-18T19:01:21.142Z,93.66
2023-04-18T19:03:48.325Z,93.02
2023-04-18T19:06:15.423Z,93.25
2023-04-18T19:08:42.252Z,93.28
2023-04-18T19:11:09.694Z,94.43
2023-04-18T19:13:36.583Z,93.39
2023-04-18T19:16:03.470Z,94.67
2023-04-18T19:18:30.421Z,93.71
2023-04-18T19:20:57.317Z,93.40
2023-04-18T19:23:25.318Z,93.63
2023-04-18T19:25:52.319Z,91.89
2023-04-18T19:28:19.245Z,94.01
2023-04-18T19:30:46.550Z,93.81
2023-04-18T19:33:13.744Z,93.89
2023-04-18T19:35:40.735Z,93.68
2023-04-18T19:38:07.670Z,92.81
2023-04-18T19:40:34.438Z,92.95
2023-04-18T19:43:01.270Z,93.78
2023-04-18T19:45:28.078Z,95.23
2023-04-18T19:47:54.971Z,94.76
2023-04-18T19:50:21.813Z,95.56
2023-04-18T19:52:48.630Z,95.55
2023-04-18T19:55:15.659Z,96.59
2023-04-18T19:57:43.394Z,96.10
2023-04-18T20:00:11.793Z,96.29
2023-04-18T20:02:42.137Z,96.70
2023-04-18T20:05:09.743Z,96.28
2023-04-18T20:07:37.052Z,95.24
2023-04-18T20:10:04.583Z,95.90
2023-04-18T20:12:31.521Z,96.92
2023-04-18T20:14:59.073Z,97.07
2023-04-18T20:17:26.315Z,95.56
2023-04-18T20:19:53.435Z,96.32
2023-04-18T20:22:20.309Z,97.08
2023-04-18T20:24:48.777Z,96.82
2023-04-18T20:27:15.666Z,97.85
2023-04-18T20:29:42.504Z,97.46
2023-04-18T20:32:11.315Z,96.20
2023-04-18T20:34:38.133Z,97.10
2023-04-18T20:37:07.533Z,97.10
2023-04-18T20:39:34.395Z,96.99
2023-04-18T20:42:04.247Z,98.03
2023-04-18T20:44:33.536Z,96.98
2023-04-18T20:47:00.315Z,98.17
2023-04-18T20:49:27.138Z,97.54
2023-04-18T20:51:53.940Z,98.67
2023-04-18T20:54:20.753Z,98.46
2023-04-18T20:56:47.679Z,97.92
2023-04-18T20:59:14.478Z,97.94
2023-04-18T21:01:41.383Z,98.16
2023-04-18T21:04:08.389Z,97.63
2023-04-18T21:06:36.737Z,97.38
2023-04-18T21:09:04.324Z,98.56
2023-04-18T21:11:31.316Z,98.32
2023-04-18T21:13:58.122Z,98.39
2023-04-18T21:16:25.028Z,98.26
2023-04-18T21:18:53.217Z,97.12
2023-04-18T21:21:20.096Z,98.45
2023-04-18T21:23:46.860Z,97.60
2023-04-18T21:26:14.100Z,98.12
2023-04-18T21:29:01.660Z,98.49
2023-04-18T21:31:30.012Z,98.36
2023-04-18T21:33:58.042Z,98.39
2023-04-18T21:36:27.032Z,99.18
2023-04-18T21:38:58.481Z,98.27
2023-04-18T21:41:25.423Z,98.69
2023-04-18T21:43:52.326Z,99.25
2023-04-18T21:46:19.387Z,98.82
2023-04-18T21:48:46.877Z,99.22
2023-04-18T21:51:14.864Z,99.75
2023-04-18T21:53:41.935Z,99.73
2023-04-18T21:56:08.833Z,99.51
2023-04-18T21:58:35.684Z,99.33
2023-04-18T22:01:02.752Z,100.00
2023-04-18T22:03:29.878Z,100.00
2023-04-18T22:05:57.567Z,100.00
2023-04-18T22:08:25.914Z,100.00
2023-04-18T22:10:58.342Z,100.00
2023-04-18T22:13:25.734Z,100.00
2023-04-18T22:15:52.590Z,100.00
2023-04-18T22:18:19.448Z,100.00
2023-04-18T22:20:47.029Z,100.00
2023-04-18T22:23:13.996Z,100.00
2023-04-18T22:25:41.070Z,100.00
2023-04-18T22:28:07.965Z,100.00
2023-04-18T22:30:34.836Z,100.00
2023-04-18T22:33:01.792Z,100.00
2023-04-18T22:35:28.637Z,100.00
2023-04-18T22:37:55.870Z,100.00
2023-04-18T22:40:22.663Z,100.00
2023-04-18T22:42:51.983Z,100.00
2023-04-18T22:45:19.499Z,100.00
2023-04-18T22:47:46.821Z,100.00
2023-04-18T22:50:14.103Z,100.00
2023-04-18T22:52:41.390Z,100.00
2023-04-18T22:55:08.887Z,100.00
2023-04-18T22:57:35.773Z,100.00
2023-04-18T23:00:04.263Z,100.00
2023-04-18T23:02:31.280Z,100.00
2023-04-18T23:04:59.049Z,100.00
2023-04-18T23:07:25.923Z,100.00
2023-04-18T23:09:52.723Z,100.00
2023-04-18T23:12:19.546Z,100.00
2023-04-18T23:14:46.411Z,100.00
2023-04-18T23:17:13.203Z,100.00
2023-04-18T23:19:40.184Z,100.00
2023-04-18T23:22:06.964Z,100.00
2023-04-18T23:24:33.785Z,100.00
2023-04-18T23:27:01.623Z,100.00
2023-04-18T23:29:28.444Z,100.00
2023-04-18T23:31:55.376Z,100.00
2023-04-18T23:34:22.280Z,100.00
2023-04-18T23:36:49.108Z,100.00
2023-04-18T23:39:18.544Z,100.00
2023-04-18T23:41:45.746Z,100.00
2023-04-18T23:44:12.756Z,100.00
2023-04-18T23:46:39.659Z,100.00
2023-04-18T23:49:06.602Z,100.00
2023-04-18T23:51:33.707Z,100.00
2023-04-18T23:54:00.476Z,100.00
2023-04-18T23:56:27.541Z,100.00
2023-04-18T23:58:54.348Z,100.00
